sensor_id;sensor_type;location;lat;lon;timestamp;pressure;altitude;pressure_sealevel;temperature;humidity
50123;BME280;36021;48.670;6.184;2023-06-19T00:02:22;98704.81;;;20.20;100.00
50123;BME280;36021;48.670;6.184;2023-06-19T00:04:48;98712.84;;;20.21;100.00
50123;BME280;36021;48.670;6.184;2023-06-19T00:07:14;98716.88;;;20.05;100.00
50123;BME280;36021;48.670;6.184;2023-06-19T00:09:39;98720.97;;;19.60;100.00
50123;BME280;36021;48.670;6.184;2023-06-19T00:12:05;98717.97;;;19.38;100.00
50123;BME280;36021;48.670;6.184;2023-06-19T00:14:31;98724.72;;;19.21;100.00
50123;BME280;36021;48.670;6.184;2023-06-19T00:16:59;98717.78;;;19.15;100.00
50123;BME280;36021;48.670;6.184;2023-06-19T00:19:26;98724.00;;;19.08;100.00
50123;BME280;36021;48.670;6.184;2023-06-19T00:21:51;98716.50;;;18.97;100.00
50123;BME280;36021;48.670;6.184;2023-06-19T00:24:23;98705.97;;;19.06;100.00
50123;BME280;36021;48.670;6.184;2023-06-19T00:26:50;98708.88;;;18.82;100.00
50123;BME280;36021;48.670;6.184;2023-06-19T00:29:16;98721.44;;;18.88;100.00
50123;BME280;36021;48.670;6.184;2023-06-19T00:31:42;98717.66;;;18.96;100.00
50123;BME280;36021;48.670;6.184;2023-06-19T00:34:08;98721.44;;;18.88;100.00
50123;BME280;36021;48.670;6.184;2023-06-19T00:36:35;98727.13;;;18.91;100.00
50123;BME280;36021;48.670;6.184;2023-06-19T00:39:06;98735.53;;;19.07;100.00
50123;BME280;36021;48.670;6.184;2023-06-19T00:41:35;98728.31;;;19.06;100.00
50123;BME280;36021;48.670;6.184;2023-06-19T00:44:01;98745.59;;;18.96;100.00
50123;BME280;36021;48.670;6.184;2023-06-19T00:46:28;98749.38;;;18.88;100.00
50123;BME280;36021;48.670;6.184;2023-06-19T00:48:54;98751.97;;;18.81;100.00
50123;BME280;36021;48.670;6.184;2023-06-19T00:51:20;98759.09;;;18.78;100.00
50123;BME280;36021;48.670;6.184;2023-06-19T00:53:47;98747.03;;;18.62;100.00
50123;BME280;36021;48.670;6.184;2023-06-19T00:56:13;98759.94;;;18.66;100.00
50123;BME280;36021;48.670;6.184;2023-06-19T00:58:42;98761.78;;;18.75;100.00
50123;BME280;36021;48.670;6.184;2023-06-19T01:01:08;98756.38;;;18.82;100.00
50123;BME280;36021;48.670;6.184;2023-06-19T01:03:36;98757.22;;;18.98;100.00
50123;BME280;36021;48.670;6.184;2023-06-19T01:06:05;98758.91;;;18.87;100.00
50123;BME280;36021;48.670;6.184;2023-06-19T01:08:47;98754.91;;;19.00;100.00
50123;BME280;36021;48.670;6.184;2023-06-19T01:11:18;98743.03;;;19.18;100.00
50123;BME280;36021;48.670;6.184;2023-06-19T01:14:00;98733.09;;;19.05;100.00
50123;BME280;36021;48.670;6.184;2023-06-19T01:16:28;98744.38;;;19.09;100.00
50123;BME280;36021;48.670;6.184;2023-06-19T01:18:54;98736.59;;;19.02;100.00
50123;BME280;36021;48.670;6.184;2023-06-19T01:21:20;98745.41;;;18.89;100.00
50123;BME280;36021;48.670;6.184;2023-06-19T01:23:45;98748.66;;;18.91;100.00
50123;BME280;36021;48.670;6.184;2023-06-19T01:26:12;98745.00;;;19.02;100.00
50123;BME280;36021;48.670;6.184;2023-06-19T01:28:41;98738.06;;;19.12;100.00
50123;BME280;36021;48.670;6.184;2023-06-19T01:31:12;98736.44;;;19.11;100.00
50123;BME280;36021;48.670;6.184;2023-06-19T01:33:42;98729.59;;;19.24;100.00
50123;BME280;36021;48.670;6.184;2023-06-19T01:36:09;98727.00;;;19.31;100.00
50123;BME280;36021;48.670;6.184;2023-06-19T01:38:36;98737.09;;;19.36;100.00
50123;BME280;36021;48.670;6.184;2023-06-19T01:41:04;98741.81;;;19.47;100.00
50123;BME280;36021;48.670;6.184;2023-06-19T01:43:34;98724.59;;;19.45;100.00
50123;BME280;36021;48.670;6.184;2023-06-19T01:46:02;98713.41;;;19.45;100.00
50123;BME280;36021;48.670;6.184;2023-06-19T01:48:28;98713.94;;;19.35;100.00
50123;BME280;36021;48.670;6.184;2023-06-19T01:50:53;98718.16;;;19.29;100.00
50123;BME280;36021;48.670;6.184;2023-06-19T01:53:19;98733.94;;;19.37;100.00
50123;BME280;36021;48.670;6.184;2023-06-19T01:55:46;98724.19;;;19.31;100.00
50123;BME280;36021;48.670;6.184;2023-06-19T01:58:14;98713.94;;;19.35;100.00
50123;BME280;36021;48.670;6.184;2023-06-19T02:00:40;98721.88;;;19.33;100.00
50123;BME280;36021;48.670;6.184;2023-06-19T02:03:05;98725.47;;;19.34;100.00
50123;BME280;36021;48.670;6.184;2023-06-19T02:05:31;98715.28;;;19.25;100.00
50123;BME280;36021;48.670;6.184;2023-06-19T02:08:00;98719.94;;;19.21;100.00
50123;BME280;36021;48.670;6.184;2023-06-19T02:10:26;98720.59;;;19.31;100.00
50123;BME280;36021;48.670;6.184;2023-06-19T02:12:51;98721.69;;;19.26;100.00
50123;BME280;36021;48.670;6.184;2023-06-19T02:15:19;98728.00;;;19.23;100.00
50123;BME280;36021;48.670;6.184;2023-06-19T02:17:45;98728.91;;;19.27;100.00
50123;BME280;36021;48.670;6.184;2023-06-19T02:20:11;98733.09;;;19.21;100.00
50123;BME280;36021;48.670;6.184;2023-06-19T02:22:40;98736.63;;;19.18;100.00
50123;BME280;36021;48.670;6.184;2023-06-19T02:25:06;98748.06;;;19.13;100.00
50123;BME280;36021;48.670;6.184;2023-06-19T02:27:32;98760.25;;;19.20;100.00
50123;BME280;36021;48.670;6.184;2023-06-19T02:29:58;98761.34;;;19.16;100.00
50123;BME280;36021;48.670;6.184;2023-06-19T02:32:25;98769.88;;;19.07;100.00
50123;BME280;36021;48.670;6.184;2023-06-19T02:34:51;98775.41;;;19.19;100.00
50123;BME280;36021;48.670;6.184;2023-06-19T02:37:16;98768.19;;;19.18;100.00
50123;BME280;36021;48.670;6.184;2023-06-19T02:39:42;98774.94;;;19.17;100.00
50123;BME280;36021;48.670;6.184;2023-06-19T02:42:09;98769.81;;;19.19;100.00
50123;BME280;36021;48.670;6.184;2023-06-19T02:44:36;98783.59;;;19.12;100.00
50123;BME280;36021;48.670;6.184;2023-06-19T02:47:02;98798.06;;;19.02;100.00
50123;BME280;36021;48.670;6.184;2023-06-19T02:49:28;98780.13;;;19.03;100.00
50123;BME280;36021;48.670;6.184;2023-06-19T02:51:53;98775.59;;;18.99;100.00
50123;BME280;36021;48.670;6.184;2023-06-19T02:54:20;98786.78;;;18.99;100.00
50123;BME280;36021;48.670;6.184;2023-06-19T02:56:46;98771.03;;;19.06;100.00
50123;BME280;36021;48.670;6.184;2023-06-19T02:59:12;98766.00;;;19.12;100.00
50123;BME280;36021;48.670;6.184;2023-06-19T03:01:37;98771.38;;;19.05;100.00
50123;BME280;36021;48.670;6.184;2023-06-19T03:04:03;98764.38;;;19.11;100.00
50123;BME280;36021;48.670;6.184;2023-06-19T03:06:29;98761.84;;;19.06;100.00
50123;BME280;36021;48.670;6.184;2023-06-19T03:08:56;98754.19;;;19.03;100.00
50123;BME280;36021;48.670;6.184;2023-06-19T03:11:22;98751.59;;;19.10;100.00
50123;BME280;36021;48.670;6.184;2023-06-19T03:13:54;98776.25;;;19.08;100.00
50123;BME280;36021;48.670;6.184;2023-06-19T03:16:20;98760.94;;;19.02;100.00
50123;BME280;36021;48.670;6.184;2023-06-19T03:18:47;98767.34;;;19.02;100.00
50123;BME280;36021;48.670;6.184;2023-06-19T03:21:15;98768.16;;;19.03;100.00
50123;BME280;36021;48.670;6.184;2023-06-19T03:23:43;98768.59;;;19.05;100.00
50123;BME280;36021;48.670;6.184;2023-06-19T03:26:09;98781.00;;;18.92;100.00
50123;BME280;36021;48.670;6.184;2023-06-19T03:28:37;98788.81;;;18.86;100.00
50123;BME280;36021;48.670;6.184;2023-06-19T03:31:05;98786.56;;;18.92;100.00
50123;BME280;36021;48.670;6.184;2023-06-19T03:33:32;98787.78;;;18.91;100.00
50123;BME280;36021;48.670;6.184;2023-06-19T03:35:57;98794.63;;;18.93;100.00
50123;BME280;36021;48.670;6.184;2023-06-19T03:38:46;98786.25;;;18.93;100.00
50123;BME280;36021;48.670;6.184;2023-06-19T03:41:13;98802.63;;;18.95;100.00
50123;BME280;36021;48.670;6.184;2023-06-19T03:43:40;98805.19;;;19.00;100.00
50123;BME280;36021;48.670;6.184;2023-06-19T03:46:06;98798.66;;;18.96;100.00
50123;BME280;36021;48.670;6.184;2023-06-19T03:48:33;98799.59;;;19.00;100.00
50123;BME280;36021;48.670;6.184;2023-06-19T03:51:00;98804.25;;;18.96;100.00
50123;BME280;36021;48.670;6.184;2023-06-19T03:53:27;98799.84;;;18.95;100.00
50123;BME280;36021;48.670;6.184;2023-06-19T03:55:54;98784.09;;;19.02;100.00
50123;BME280;36021;48.670;6.184;2023-06-19T03:58:20;98788.81;;;19.14;100.00
50123;BME280;36021;48.670;6.184;2023-06-19T04:00:47;98772.69;;;19.23;100.00
50123;BME280;36021;48.670;6.184;2023-06-19T04:03:12;98761.25;;;19.28;100.00
50123;BME280;36021;48.670;6.184;2023-06-19T04:05:38;98773.44;;;19.36;100.00
50123;BME280;36021;48.670;6.184;2023-06-19T04:08:07;98768.16;;;19.46;100.00
50123;BME280;36021;48.670;6.184;2023-06-19T04:10:32;98767.63;;;19.56;100.00
50123;BME280;36021;48.670;6.184;2023-06-19T04:12:59;98768.78;;;19.55;100.00
50123;BME280;36021;48.670;6.184;2023-06-19T04:15:27;98773.38;;;19.63;100.00
50123;BME280;36021;48.670;6.184;2023-06-19T04:17:53;98768.78;;;19.71;100.00
50123;BME280;36021;48.670;6.184;2023-06-19T04:20:18;98772.59;;;19.79;100.00
50123;BME280;36021;48.670;6.184;2023-06-19T04:22:46;98770.22;;;19.81;100.00
50123;BME280;36021;48.670;6.184;2023-06-19T04:25:12;98773.94;;;19.85;100.00
50123;BME280;36021;48.670;6.184;2023-06-19T04:27:38;98786.47;;;19.91;100.00
50123;BME280;36021;48.670;6.184;2023-06-19T04:30:04;98787.28;;;19.91;100.00
50123;BME280;36021;48.670;6.184;2023-06-19T04:32:33;98799.31;;;19.76;100.00
50123;BME280;36021;48.670;6.184;2023-06-19T04:35:00;98802.34;;;19.87;100.00
50123;BME280;36021;48.670;6.184;2023-06-19T04:37:26;98806.47;;;19.93;100.00
50123;BME280;36021;48.670;6.184;2023-06-19T04:39:51;98807.38;;;19.97;100.00
50123;BME280;36021;48.670;6.184;2023-06-19T04:42:20;98811.53;;;20.03;100.00
50123;BME280;36021;48.670;6.184;2023-06-19T04:44:47;98812.16;;;19.96;100.00
50123;BME280;36021;48.670;6.184;2023-06-19T04:47:16;98817.75;;;19.96;100.00
50123;BME280;36021;48.670;6.184;2023-06-19T04:49:41;98806.13;;;19.94;100.00
50123;BME280;36021;48.670;6.184;2023-06-19T04:52:07;98810.81;;;20.06;100.00
50123;BME280;36021;48.670;6.184;2023-06-19T04:54:34;98805.47;;;20.16;100.00
50123;BME280;36021;48.670;6.184;2023-06-19T04:56:59;98800.34;;;20.03;100.00
50123;BME280;36021;48.670;6.184;2023-06-19T04:59:26;98810.47;;;19.92;100.00
50123;BME280;36021;48.670;6.184;2023-06-19T05:01:51;98811.09;;;20.01;100.00
50123;BME280;36021;48.670;6.184;2023-06-19T05:04:20;98822.09;;;19.94;100.00
50123;BME280;36021;48.670;6.184;2023-06-19T05:06:47;98832.84;;;20.07;100.00
50123;BME280;36021;48.670;6.184;2023-06-19T05:09:13;98816.97;;;20.11;100.00
50123;BME280;36021;48.670;6.184;2023-06-19T05:11:39;98826.09;;;20.08;100.00
50123;BME280;36021;48.670;6.184;2023-06-19T05:14:04;98827.59;;;20.21;100.00
50123;BME280;36021;48.670;6.184;2023-06-19T05:16:31;98823.69;;;20.26;100.00
50123;BME280;36021;48.670;6.184;2023-06-19T05:18:57;98820.53;;;20.43;100.00
50123;BME280;36021;48.670;6.184;2023-06-19T05:21:22;98807.44;;;20.47;100.00
50123;BME280;36021;48.670;6.184;2023-06-19T05:23:48;98815.63;;;20.56;100.00
50123;BME280;36021;48.670;6.184;2023-06-19T05:26:19;98810.63;;;20.65;100.00
50123;BME280;36021;48.670;6.184;2023-06-19T05:28:46;98820.13;;;20.60;100.00
50123;BME280;36021;48.670;6.184;2023-06-19T05:31:11;98819.41;;;20.63;100.00
50123;BME280;36021;48.670;6.184;2023-06-19T05:33:38;98810.84;;;20.75;100.00
50123;BME280;36021;48.670;6.184;2023-06-19T05:36:04;98820.31;;;20.67;100.00
50123;BME280;36021;48.670;6.184;2023-06-19T05:38:29;98824.03;;;20.56;100.00
50123;BME280;36021;48.670;6.184;2023-06-19T05:40:57;98815.44;;;20.64;100.00
50123;BME280;36021;48.670;6.184;2023-06-19T05:43:24;98833.25;;;20.56;100.00
50123;BME280;36021;48.670;6.184;2023-06-19T05:45:53;98834.13;;;20.60;100.00
50123;BME280;36021;48.670;6.184;2023-06-19T05:48:19;98845.34;;;20.60;100.00
50123;BME280;36021;48.670;6.184;2023-06-19T05:50:44;98851.63;;;20.73;100.00
50123;BME280;36021;48.670;6.184;2023-06-19T05:53:10;98851.06;;;20.83;100.00
50123;BME280;36021;48.670;6.184;2023-06-19T05:55:36;98842.28;;;20.85;100.00
50123;BME280;36021;48.670;6.184;2023-06-19T05:58:02;98844.34;;;20.88;100.00
50123;BME280;36021;48.670;6.184;2023-06-19T06:00:30;98850.41;;;20.90;100.00
50123;BME280;36021;48.670;6.184;2023-06-19T06:02:57;98856.31;;;21.04;100.00
50123;BME280;36021;48.670;6.184;2023-06-19T06:05:28;98846.09;;;20.76;100.00
50123;BME280;36021;48.670;6.184;2023-06-19T06:07:54;98838.72;;;20.88;100.00
50123;BME280;36021;48.670;6.184;2023-06-19T06:10:21;98837.72;;;20.96;100.00
50123;BME280;36021;48.670;6.184;2023-06-19T06:12:47;98843.31;;;20.96;100.00
50123;BME280;36021;48.670;6.184;2023-06-19T06:15:13;98834.69;;;21.04;100.00
50123;BME280;36021;48.670;6.184;2023-06-19T06:17:40;98840.28;;;21.20;100.00
50123;BME280;36021;48.670;6.184;2023-06-19T06:20:06;98847.16;;;21.07;100.00
50123;BME280;36021;48.670;6.184;2023-06-19T06:22:39;98853.00;;;21.17;100.00
50123;BME280;36021;48.670;6.184;2023-06-19T06:25:05;98850.44;;;21.28;100.00
50123;BME280;36021;48.670;6.184;2023-06-19T06:27:31;98846.06;;;21.50;100.00
50123;BME280;36021;48.670;6.184;2023-06-19T06:29:57;98849.44;;;21.59;100.00
50123;BME280;36021;48.670;6.184;2023-06-19T06:32:23;98859.31;;;21.72;100.00
50123;BME280;36021;48.670;6.184;2023-06-19T06:34:48;98852.50;;;21.92;100.00
50123;BME280;36021;48.670;6.184;2023-06-19T06:37:14;98852.66;;;22.03;100.00
50123;BME280;36021;48.670;6.184;2023-06-19T06:39:41;98857.53;;;22.06;100.00
50123;BME280;36021;48.670;6.184;2023-06-19T06:42:09;98852.84;;;21.91;100.00
50123;BME280;36021;48.670;6.184;2023-06-19T06:44:36;98851.16;;;22.09;100.00
50123;BME280;36021;48.670;6.184;2023-06-19T06:47:02;98853.84;;;22.24;100.00
50123;BME280;36021;48.670;6.184;2023-06-19T06:49:28;98853.75;;;22.44;100.00
50123;BME280;36021;48.670;6.184;2023-06-19T06:51:53;98855.09;;;22.53;100.00
50123;BME280;36021;48.670;6.184;2023-06-19T06:54:20;98851.09;;;22.54;100.00
50123;BME280;36021;48.670;6.184;2023-06-19T06:56:46;98860.75;;;22.79;100.00
50123;BME280;36021;48.670;6.184;2023-06-19T06:59:14;98861.53;;;22.54;100.00
50123;BME280;36021;48.670;6.184;2023-06-19T07:01:42;98867.28;;;22.64;100.00
50123;BME280;36021;48.670;6.184;2023-06-19T07:04:08;98857.69;;;22.92;100.00
50123;BME280;36021;48.670;6.184;2023-06-19T07:06:33;98857.16;;;23.12;100.00
50123;BME280;36021;48.670;6.184;2023-06-19T07:08:59;98858.69;;;23.40;100.00
50123;BME280;36021;48.670;6.184;2023-06-19T07:11:24;98857.91;;;23.39;100.00
50123;BME280;36021;48.670;6.184;2023-06-19T07:13:50;98862.91;;;23.53;100.00
50123;BME280;36021;48.670;6.184;2023-06-19T07:16:17;98861.88;;;23.34;100.00
50123;BME280;36021;48.670;6.184;2023-06-19T07:18:42;98863.03;;;23.63;100.00
50123;BME280;36021;48.670;6.184;2023-06-19T07:21:11;98869.94;;;23.40;100.00
50123;BME280;36021;48.670;6.184;2023-06-19T07:23:42;98869.50;;;23.67;100.00
50123;BME280;36021;48.670;6.184;2023-06-19T07:26:09;98863.06;;;23.67;100.00
50123;BME280;36021;48.670;6.184;2023-06-19T07:28:35;98859.06;;;23.68;100.00
50123;BME280;36021;48.670;6.184;2023-06-19T07:31:02;98857.41;;;23.63;100.00
50123;BME280;36021;48.670;6.184;2023-06-19T07:33:29;98855.47;;;23.71;100.00
50123;BME280;36021;48.670;6.184;2023-06-19T07:35:55;98855.66;;;23.89;100.00
50123;BME280;36021;48.670;6.184;2023-06-19T07:38:21;98853.78;;;24.03;100.00
50123;BME280;36021;48.670;6.184;2023-06-19T07:40:47;98848.66;;;24.12;100.00
50123;BME280;36021;48.670;6.184;2023-06-19T07:43:15;98854.78;;;24.25;100.00
50123;BME280;36021;48.670;6.184;2023-06-19T07:45:43;98841.25;;;24.38;100.00
50123;BME280;36021;48.670;6.184;2023-06-19T07:48:09;98842.09;;;24.49;100.00
50123;BME280;36021;48.670;6.184;2023-06-19T07:50:34;98845.03;;;24.63;100.00
50123;BME280;36021;48.670;6.184;2023-06-19T07:53:00;98852.00;;;24.79;100.00
50123;BME280;36021;48.670;6.184;2023-06-19T07:55:26;98853.22;;;24.82;100.00
50123;BME280;36021;48.670;6.184;2023-06-19T07:57:51;98852.94;;;25.01;100.00
50123;BME280;36021;48.670;6.184;2023-06-19T08:00:19;98846.56;;;25.18;100.00
50123;BME280;36021;48.670;6.184;2023-06-19T08:02:44;98848.53;;;25.07;100.00
50123;BME280;36021;48.670;6.184;2023-06-19T08:05:10;98839.72;;;25.23;100.00
50123;BME280;36021;48.670;6.184;2023-06-19T08:07:36;98852.19;;;25.15;100.00
50123;BME280;36021;48.670;6.184;2023-06-19T08:10:02;98853.84;;;25.23;100.00
50123;BME280;36021;48.670;6.184;2023-06-19T08:12:30;98856.28;;;25.24;100.00
50123;BME280;36021;48.670;6.184;2023-06-19T08:14:56;98855.84;;;25.15;100.00
50123;BME280;36021;48.670;6.184;2023-06-19T08:17:22;98853.00;;;25.12;100.00
50123;BME280;36021;48.670;6.184;2023-06-19T08:19:48;98849.75;;;25.13;100.00
50123;BME280;36021;48.670;6.184;2023-06-19T08:22:13;98857.94;;;25.43;100.00
50123;BME280;36021;48.670;6.184;2023-06-19T08:24:39;98851.19;;;25.55;100.00
50123;BME280;36021;48.670;6.184;2023-06-19T08:27:06;98853.66;;;25.77;100.00
50123;BME280;36021;48.670;6.184;2023-06-19T08:29:32;98854.41;;;25.60;100.00
50123;BME280;36021;48.670;6.184;2023-06-19T08:31:58;98854.84;;;25.73;100.00
50123;BME280;36021;48.670;6.184;2023-06-19T08:34:25;98854.06;;;25.83;100.00
50123;BME280;36021;48.670;6.184;2023-06-19T08:36:51;98850.88;;;26.09;100.00
50123;BME280;36021;48.670;6.184;2023-06-19T08:39:17;98849.28;;;26.26;100.00
50123;BME280;36021;48.670;6.184;2023-06-19T08:41:42;98854.09;;;26.04;100.00
50123;BME280;36021;48.670;6.184;2023-06-19T08:44:08;98845.25;;;26.37;100.00
50123;BME280;36021;48.670;6.184;2023-06-19T08:46:35;98843.63;;;26.51;100.00
50123;BME280;36021;48.670;6.184;2023-06-19T08:49:03;98841.22;;;26.42;100.00
50123;BME280;36021;48.670;6.184;2023-06-19T08:51:31;98841.59;;;26.62;100.00
50123;BME280;36021;48.670;6.184;2023-06-19T08:54:03;98846.84;;;26.63;100.00
50123;BME280;36021;48.670;6.184;2023-06-19T08:56:33;98841.19;;;26.84;100.00
50123;BME280;36021;48.670;6.184;2023-06-19T08:59:13;98833.13;;;26.62;100.00
50123;BME280;36021;48.670;6.184;2023-06-19T09:01:39;98837.97;;;26.82;100.00
50123;BME280;36021;48.670;6.184;2023-06-19T09:04:13;98842.78;;;26.78;100.00
50123;BME280;36021;48.670;6.184;2023-06-19T09:07:02;98844.41;;;26.86;100.00
50123;BME280;36021;48.670;6.184;2023-06-19T09:09:34;98840.38;;;26.84;100.00
50123;BME280;36021;48.670;6.184;2023-06-19T09:14:37;98843.53;;;27.04;100.00
50123;BME280;36021;48.670;6.184;2023-06-19T09:17:05;98845.19;;;27.01;100.00
50123;BME280;36021;48.670;6.184;2023-06-19T09:19:32;98842.78;;;26.92;100.00
50123;BME280;36021;48.670;6.184;2023-06-19T09:22:08;98846.00;;;26.73;100.00
50123;BME280;36021;48.670;6.184;2023-06-19T09:24:41;98841.56;;;26.86;100.00
50123;BME280;36021;48.670;6.184;2023-06-19T09:27:15;98833.94;;;26.62;100.00
50123;BME280;36021;48.670;6.184;2023-06-19T09:29:45;98840.41;;;26.52;100.00
50123;BME280;36021;48.670;6.184;2023-06-19T09:32:23;98820.16;;;26.96;100.00
50123;BME280;36021;48.670;6.184;2023-06-19T09:34:53;98836.31;;;26.88;100.00
50123;BME280;36021;48.670;6.184;2023-06-19T09:37:27;98826.53;;;27.11;100.00
50123;BME280;36021;48.670;6.184;2023-06-19T09:42:27;98807.75;;;27.52;100.00
50123;BME280;36021;48.670;6.184;2023-06-19T09:45:01;98813.16;;;27.94;100.00
50123;BME280;36021;48.670;6.184;2023-06-19T09:47:39;98811.34;;;28.22;100.00
50123;BME280;36021;48.670;6.184;2023-06-19T09:50:06;98809.88;;;28.51;100.00
50123;BME280;36021;48.670;6.184;2023-06-19T09:52:32;98808.84;;;28.31;100.00
50123;BME280;36021;48.670;6.184;2023-06-19T09:55:07;98812.97;;;28.23;100.00
50123;BME280;36021;48.670;6.184;2023-06-19T09:57:35;98804.75;;;28.35;100.00
50123;BME280;36021;48.670;6.184;2023-06-19T10:00:04;98800.81;;;28.22;100.00
50123;BME280;36021;48.670;6.184;2023-06-19T10:02:54;98799.50;;;28.34;100.00
50123;BME280;36021;48.670;6.184;2023-06-19T10:05:30;98796.84;;;28.16;100.00
50123;BME280;36021;48.670;6.184;2023-06-19T10:07:56;98778.97;;;28.19;100.00
50123;BME280;36021;48.670;6.184;2023-06-19T10:10:27;98779.59;;;28.41;100.00
50123;BME280;36021;48.670;6.184;2023-06-19T10:12:59;98774.56;;;28.59;100.00
50123;BME280;36021;48.670;6.184;2023-06-19T10:15:27;98780.97;;;28.63;100.00
50123;BME280;36021;48.670;6.184;2023-06-19T10:18:03;98788.03;;;28.89;100.00
50123;BME280;36021;48.670;6.184;2023-06-19T10:20:37;98779.06;;;28.90;100.00
50123;BME280;36021;48.670;6.184;2023-06-19T10:23:10;98776.97;;;28.57;100.00
50123;BME280;36021;48.670;6.184;2023-06-19T10:25:41;98768.44;;;28.98;100.00
50123;BME280;36021;48.670;6.184;2023-06-19T10:30:56;98766.88;;;28.93;100.00
50123;BME280;36021;48.670;6.184;2023-06-19T10:33:25;98757.25;;;28.84;100.00
50123;BME280;36021;48.670;6.184;2023-06-19T10:35:52;98759.16;;;28.57;100.00
50123;BME280;36021;48.670;6.184;2023-06-19T10:38:18;98751.75;;;28.70;100.00
50123;BME280;36021;48.670;6.184;2023-06-19T10:40:44;98758.91;;;28.81;100.00
50123;BME280;36021;48.670;6.184;2023-06-19T10:43:12;98770.03;;;28.21;100.00
50123;BME280;36021;48.670;6.184;2023-06-19T10:45:40;98780.13;;;28.70;100.00
50123;BME280;36021;48.670;6.184;2023-06-19T10:48:05;98776.84;;;29.09;100.00
50123;BME280;36021;48.670;6.184;2023-06-19T10:50:35;98770.66;;;28.42;100.00
50123;BME280;36021;48.670;6.184;2023-06-19T10:53:03;98792.41;;;28.12;100.00
50123;BME280;36021;48.670;6.184;2023-06-19T10:55:29;98787.25;;;27.96;100.00
50123;BME280;36021;48.670;6.184;2023-06-19T10:57:58;98781.91;;;28.09;100.00
50123;BME280;36021;48.670;6.184;2023-06-19T11:00:29;98780.75;;;27.95;100.00
50123;BME280;36021;48.670;6.184;2023-06-19T11:02:55;98786.13;;;27.83;100.00
50123;BME280;36021;48.670;6.184;2023-06-19T11:05:23;98792.28;;;27.74;100.00
50123;BME280;36021;48.670;6.184;2023-06-19T11:10:23;98795.16;;;27.67;100.00
50123;BME280;36021;48.670;6.184;2023-06-19T11:12:52;98795.00;;;27.85;100.00
50123;BME280;36021;48.670;6.184;2023-06-19T11:15:19;98788.06;;;27.97;100.00
50123;BME280;36021;48.670;6.184;2023-06-19T11:17:45;98784.16;;;27.76;100.00
50123;BME280;36021;48.670;6.184;2023-06-19T11:20:12;98787.28;;;27.89;100.00
50123;BME280;36021;48.670;6.184;2023-06-19T11:22:40;98786.31;;;27.58;100.00
50123;BME280;36021;48.670;6.184;2023-06-19T11:25:08;98789.81;;;27.76;100.00
50123;BME280;36021;48.670;6.184;2023-06-19T11:27:37;98781.19;;;27.94;100.00
50123;BME280;36021;48.670;6.184;2023-06-19T11:30:03;98778.50;;;27.76;100.00
50123;BME280;36021;48.670;6.184;2023-06-19T11:32:35;98773.28;;;28.23;100.00
50123;BME280;36021;48.670;6.184;2023-06-19T11:35:16;98772.84;;;27.73;100.00
50123;BME280;36021;48.670;6.184;2023-06-19T11:37:43;98767.25;;;27.62;100.00
50123;BME280;36021;48.670;6.184;2023-06-19T11:40:12;98778.03;;;27.81;100.00
50123;BME280;36021;48.670;6.184;2023-06-19T11:42:53;98767.69;;;28.12;100.00
50123;BME280;36021;48.670;6.184;2023-06-19T11:45:21;98757.41;;;28.32;100.00
50123;BME280;36021;48.670;6.184;2023-06-19T11:47:49;98752.59;;;28.26;100.00
50123;BME280;36021;48.670;6.184;2023-06-19T11:50:15;98756.81;;;28.48;100.00
50123;BME280;36021;48.670;6.184;2023-06-19T11:52:43;98764.56;;;28.44;100.00
50123;BME280;36021;48.670;6.184;2023-06-19T11:55:13;98757.38;;;28.36;100.00
50123;BME280;36021;48.670;6.184;2023-06-19T11:57:42;98751.47;;;28.16;100.00
50123;BME280;36021;48.670;6.184;2023-06-19T12:00:15;98754.69;;;28.18;100.00
50123;BME280;36021;48.670;6.184;2023-06-19T12:02:43;98751.50;;;28.13;100.00
50123;BME280;36021;48.670;6.184;2023-06-19T12:05:09;98752.34;;;28.10;100.00
50123;BME280;36021;48.670;6.184;2023-06-19T12:07:36;98753.19;;;28.07;100.00
50123;BME280;36021;48.670;6.184;2023-06-19T12:10:02;98749.16;;;28.01;100.00
50123;BME280;36021;48.670;6.184;2023-06-19T12:12:29;98753.56;;;28.09;100.00
50123;BME280;36021;48.670;6.184;2023-06-19T12:14:55;98750.53;;;28.30;100.00
50123;BME280;36021;48.670;6.184;2023-06-19T12:17:22;98749.38;;;28.61;100.00
50123;BME280;36021;48.670;6.184;2023-06-19T12:19:47;98751.09;;;28.92;100.00
50123;BME280;36021;48.670;6.184;2023-06-19T12:22:14;98742.00;;;29.05;100.00
50123;BME280;36021;48.670;6.184;2023-06-19T12:24:39;98752.50;;;29.08;100.00
50123;BME280;36021;48.670;6.184;2023-06-19T12:27:05;98745.34;;;28.96;100.00
50123;BME280;36021;48.670;6.184;2023-06-19T12:29:30;98742.94;;;28.94;100.00
50123;BME280;36021;48.670;6.184;2023-06-19T12:32:01;98736.69;;;29.07;100.00
50123;BME280;36021;48.670;6.184;2023-06-19T12:34:30;98731.91;;;29.00;100.00
50123;BME280;36021;48.670;6.184;2023-06-19T12:36:56;98738.41;;;29.01;100.00
50123;BME280;36021;48.670;6.184;2023-06-19T12:39:22;98739.22;;;28.67;100.00
50123;BME280;36021;48.670;6.184;2023-06-19T12:41:48;98726.69;;;28.99;100.00
50123;BME280;36021;48.670;6.184;2023-06-19T12:44:14;98725.22;;;29.17;100.00
50123;BME280;36021;48.670;6.184;2023-06-19T12:46:41;98723.91;;;29.52;100.00
50123;BME280;36021;48.670;6.184;2023-06-19T12:49:06;98722.53;;;29.90;100.00
50123;BME280;36021;48.670;6.184;2023-06-19T12:51:34;98713.38;;;30.03;100.00
50123;BME280;36021;48.670;6.184;2023-06-19T12:53:59;98708.97;;;30.21;100.00
50123;BME280;36021;48.670;6.184;2023-06-19T12:56:25;98705.72;;;30.23;100.00
50123;BME280;36021;48.670;6.184;2023-06-19T12:58:51;98698.56;;;30.34;100.00
50123;BME280;36021;48.670;6.184;2023-06-19T13:01:17;98691.25;;;30.14;100.00
50123;BME280;36021;48.670;6.184;2023-06-19T13:03:43;98695.84;;;30.27;100.00